Latest Coastal Weather Observations for Lihou Reef Lighthouse

IDQ60701

Issued at 5:42 pm EST Thursday 20 February 2020 (issued every 10 minutes, with the page automatically refreshed every 10 minutes)

About coastal observations | Map of coastal stations | Coastal observations for QLD | Marine services | Other Formats
Station Details ID: 200880 Name: LIHOU REEF LIGHTHOUSE Lat: -17.13 Lon: 152.15 Height: 10.26 m
Data from the previous 72 hours. | See also: Recent months at Lihou Reef Lighthouse
Date/Time
EST
Wind Sea
Height
m
Swell Vis
km
Cloud Weather Temp
°C
Press
hPa
Rain since
9am
mm
Dir  Spd
kts
Gust
kts
Height
m
Period
s
Dir
20/05:30pm CALM 0 0 - - - - - - - 31.0 1006.7 -
20/05:00pm CALM 0 0 - - - - - - - 29.9 1006.3 -
20/04:30pm CALM 0 1 - - - - - - - 31.4 1006.2 -
20/04:00pm CALM 0 1 - - - - - - - 31.5 1006.2 -
20/03:30pm CALM 0 1 - - - - - - - 29.8 1006.0 -
20/03:00pm ENE 1 1 - - - - - - - 30.0 1006.1 -
20/02:30pm E 1 3 - - - - - - - 29.7 1006.2 -
20/02:00pm ENE 1 3 - - - - - - - 29.9 1006.4 -
20/01:30pm NE 2 4 - - - - - - - 29.5 1006.8 -
20/01:00pm NNE 3 5 - - - - - - - 29.4 1007.0 -
20/12:30pm CALM 0 1 - - - - - - - 30.2 1007.4 -
20/12:00pm ENE 1 3 - - - - - - - 29.5 1007.7 -
20/11:30am ENE 1 2 - - - - - - - 29.9 1007.9 -
20/11:00am ENE 1 3 - - - - - - - 29.7 1008.1 -
20/10:30am E 2 3 - - - - - - - 29.7 1008.3 -
20/10:00am E 1 3 - - - - - - - 29.6 1008.2 -
20/09:30am ENE 3 4 - - - - - - - 29.6 1008.3 -
20/09:00am ENE 2 4 - - - - - - - 29.5 1008.1 -
20/08:30am ENE 3 5 - - - - - - - 29.5 1007.9 -
20/08:00am E 3 4 - - - - - - - 29.4 1007.7 -
20/07:30am ENE 3 5 - - - - - - - 29.4 1007.2 -
20/07:00am E 3 4 - - - - - - - 29.6 1006.9 -
20/06:30am E 3 5 - - - - - - - 29.3 1006.5 -
20/06:00am ENE 3 5 - - - - - - - 28.9 1005.9 -
20/05:30am ENE 3 4 - - - - - - - 28.8 1005.9 -
20/05:00am CALM 0 0 - - - - - - - 28.7 1005.8 -
20/04:30am E 2 3 - - - - - - - 28.8 1005.4 -
20/04:00am E 2 4 - - - - - - - 28.8 1005.4 -
20/03:30am E 2 4 - - - - - - - 28.7 1005.5 -
20/03:00am E 1 2 - - - - - - - 28.8 1005.7 -
20/02:30am E 2 4 - - - - - - - 28.9 1005.9 -
20/02:00am E 2 3 - - - - - - - 28.9 1006.0 -
20/01:30am E 2 3 - - - - - - - 28.9 1006.2 -
20/01:00am E 2 3 - - - - - - - 29.0 1006.5 -
20/12:30am E 2 3 - - - - - - - 29.1 1007.0 -
20/12:00am E 2 2 - - - - - - - 29.2 1007.4 -
 
Date/Time
EST
Wind Sea
Height
m
Swell Vis
km
Cloud Weather Temp
°C
Press
hPa
Rain since
9am
mm
Dir  Spd
kts
Gust
kts
Height
m
Period
s
Dir
19/11:30pm E 2 3 - - - - - - - 29.2 1007.7 -
19/11:00pm E 2 3 - - - - - - - 29.3 1008.1 -
19/10:30pm ESE 3 5 - - - - - - - 29.4 1008.0 -
19/10:00pm E 3 5 - - - - - - - 29.4 1007.9 -
19/09:30pm E 3 3 - - - - - - - 29.4 1007.7 -
19/09:00pm E 3 4 - - - - - - - 29.5 1007.6 -
19/08:30pm ESE 4 5 - - - - - - - 29.4 1007.2 -
19/08:00pm ESE 4 6 - - - - - - - 29.4 1007.0 -
19/07:30pm SE 5 6 - - - - - - - 29.4 1006.6 -
19/07:00pm SE 5 7 - - - - - - - 29.5 1006.2 -
19/06:30pm SE 6 7 - - - - - - - 29.4 1005.8 -
19/06:00pm E 3 4 - - - - - - - 29.6 1005.6 -
19/05:30pm SE 1 3 - - - - - - - 29.7 1005.3 -
19/05:00pm CALM 0 0 - - - - - - - 30.0 1005.2 -
19/04:30pm SSE 1 3 - - - - - - - 29.8 1004.7 -
19/04:00pm SSW 5 9 - - - - - - - 28.5 1004.7 -
19/03:30pm CALM 0 0 - - - - - - - 29.7 1004.7 -
19/03:00pm CALM 0 9 - - - - - - - 31.2 1004.7 -
19/02:30pm CALM 0 0 - - - - - - - 30.7 1005.0 -
19/02:00pm CALM 0 0 - - - - - - - 30.3 1005.3 -
19/01:30pm SSE 1 2 - - - - - - - 29.9 1005.4 -
19/01:00pm SSE 1 4 - - - - - - - 29.8 1005.6 -
19/12:30pm S 1 2 - - - - - - - 29.4 1006.0 -
19/12:00pm SE 1 3 - - - - - - - 29.5 1006.4 -
19/11:30am ESE 3 4 - - - - - - - 29.9 1006.6 -
19/11:00am NNE 2 3 - - - - - - - 30.0 1006.7 -
19/10:30am CALM 0 0 - - - - - - - 29.2 1007.1 -
19/10:00am ESE 2 3 - - - - - - - 30.2 1007.3 -
19/09:30am ESE 3 4 - - - - - - - 30.2 1007.5 -
19/09:00am S 2 3 - - - - - - - 28.5 1007.2 -
19/08:30am SSW 3 5 - - - - - - - 27.9 1007.3 -
19/08:00am SW 6 8 - - - - - - - 27.6 1007.0 -
19/07:30am SSW 5 7 - - - - - - - 27.4 1006.6 -
19/07:00am SW 6 8 - - - - - - - 27.5 1006.4 -
19/06:30am SSE 4 8 - - - - - - - 27.8 1006.2 -
19/06:00am SE 4 6 - - - - - - - 27.7 1005.9 -
19/05:30am SE 4 8 - - - - - - - 27.2 1005.7 -
19/05:00am SSE 5 10 - - - - - - - 26.7 1005.3 -
19/04:30am NE 4 5 - - - - - - - 28.0 1004.9 -
19/04:00am ENE 8 11 - - - - - - - 27.1 1004.9 -
19/03:30am ENE 6 8 - - - - - - - 28.1 1004.8 -
19/03:00am SE 12 21 - - - - - - - 27.2 1005.0 -
19/02:30am E 7 9 - - - - - - - 29.2 1005.1 -
19/02:00am ENE 8 10 - - - - - - - 29.2 1005.1 -
19/01:30am E 8 10 - - - - - - - 29.3 1005.3 -
19/01:00am E 9 11 - - - - - - - 29.3 1005.4 -
19/12:30am E 7 9 - - - - - - - 29.2 1005.9 -
19/12:00am E 9 11 - - - - - - - 29.3 1006.0 -
 
Date/Time
EST
Wind Sea
Height
m
Swell Vis
km
Cloud Weather Temp
°C
Press
hPa
Rain since
9am
mm
Dir  Spd
kts
Gust
kts
Height
m
Period
s
Dir
18/11:30pm E 10 12 - - - - - - - 29.3 1006.4 -
18/11:00pm E 10 13 - - - - - - - 29.3 1006.5 -
18/10:30pm E 10 11 - - - - - - - 29.3 1006.7 -
18/10:00pm ESE 9 10 - - - - - - - 29.1 1006.7 -
18/09:30pm ESE 10 12 - - - - - - - 29.1 1006.7 -
18/09:00pm ESE 10 11 - - - - - - - 29.4 1006.4 -
18/08:30pm ESE 10 12 - - - - - - - 29.5 1006.3 -
18/08:00pm ESE 11 13 - - - - - - - 29.5 1006.0 -
18/07:30pm E 10 13 - - - - - - - 29.3 1005.8 -
18/07:00pm ESE 9 10 - - - - - - - 29.5 1005.5 -
18/06:30pm ESE 8 9 - - - - - - - 29.4 1005.4 -
18/06:00pm SE 7 8 - - - - - - - 29.4 1005.2 -
18/05:30pm SE 8 9 - - - - - - - 29.4 1004.8 -
18/05:00pm SE 7 9 - - - - - - - 29.3 1004.4 -
18/04:30pm SE 7 9 - - - - - - - 29.1 1004.2 -
18/04:00pm SE 5 7 - - - - - - - 29.1 1004.3 -
18/03:30pm SSE 5 7 - - - - - - - 29.1 1004.6 -
18/03:00pm SSE 6 8 - - - - - - - 29.1 1004.7 -
18/02:30pm SSE 8 9 - - - - - - - 29.0 1005.0 -
18/02:00pm SSE 7 10 - - - - - - - 29.0 1005.2 -
18/01:30pm ESE 3 5 - - - - - - - 28.3 1006.0 -
18/01:00pm ENE 4 7 - - - - - - - 27.7 1006.5 -
18/12:30pm CALM 0 0 - - - - - - - 30.4 1006.6 -
18/12:00pm ENE 1 3 - - - - - - - 29.2 1006.9 -
18/11:30am E 8 12 - - - - - - - 27.8 1007.4 -
18/11:00am S 5 6 - - - - - - - 29.4 1007.7 -
18/10:30am SSE 2 4 - - - - - - - 29.4 1008.0 -
18/10:00am SSE 4 5 - - - - - - - 29.2 1008.2 -
18/09:30am SE 7 8 - - - - - - - 28.6 1008.4 -
18/09:00am SE 7 9 - - - - - - - 28.6 1008.4 -
18/08:30am SE 6 10 - - - - - - - 28.7 1008.0 -
18/08:00am SSE 11 14 - - - - - - - 28.1 1007.9 -
18/07:30am S 13 15 - - - - - - - 27.9 1007.5 -
18/07:00am E 3 6 - - - - - - - 28.2 1007.5 -
18/06:30am ESE 3 4 - - - - - - - 29.1 1007.2 -
18/06:00am SE 7 8 - - - - - - - 29.1 1006.8 -
18/05:30am ESE 5 7 - - - - - - - 29.1 1006.3 -
18/05:00am ESE 7 8 - - - - - - - 29.2 1006.3 -
18/04:30am ESE 7 8 - - - - - - - 29.1 1006.2 -
18/04:00am ESE 5 6 - - - - - - - 29.1 1006.0 -
18/03:30am SE 6 8 - - - - - - - 29.2 1005.8 -
18/03:00am SE 6 7 - - - - - - - 29.2 1006.0 -
18/02:30am SE 7 8 - - - - - - - 29.2 1006.1 -
18/02:00am SE 8 9 - - - - - - - 29.3 1006.4 -
18/01:30am SE 8 9 - - - - - - - 29.2 1006.7 -
18/01:00am SE 7 8 - - - - - - - 29.3 1007.0 -
18/12:30am SE 9 10 - - - - - - - 29.5 1007.4 -
18/12:00am ESE 6 9 - - - - - - - 29.1 1007.7 -
 
Date/Time
EST
Wind Sea
Height
m
Swell Vis
km
Cloud Weather Temp
°C
Press
hPa
Rain since
9am
mm
Dir  Spd
kts
Gust
kts
Height
m
Period
s
Dir
17/11:30pm ESE 8 9 - - - - - - - 29.2 1008.1 -
17/11:00pm SE 9 10 - - - - - - - 29.1 1008.1 -
17/10:30pm ESE 8 9 - - - - - - - 29.5 1008.1 -
17/10:00pm SE 8 10 - - - - - - - 29.5 1008.1 -
17/09:30pm SE 8 10 - - - - - - - 29.3 1008.0 -
17/09:00pm SE 9 11 - - - - - - - 29.3 1007.8 -
17/08:30pm SE 9 10 - - - - - - - 29.4 1007.7 -
17/08:00pm SE 9 10 - - - - - - - 29.5 1007.6 -
17/07:30pm SSE 9 10 - - - - - - - 29.5 1007.4 -
17/07:00pm SSE 10 12 - - - - - - - 29.4 1007.1 -
17/06:30pm SSE 8 10 - - - - - - - 29.4 1006.9 -
17/06:00pm SE 8 10 - - - - - - - 29.4 1006.6 -

Other formats

Comma delimited format used in spreadsheet applications
http://www.bom.gov.au/fwo/IDQ60701/IDQ60701.94293.axf

JavaScript Object Notation format (JSON) in row-major order
http://www.bom.gov.au/fwo/IDQ60701/IDQ60701.94293.json

Data quality

Most of these data are generated automatically and are frequently updated. Quality checks on data are not normally performed. It is possible for incorrect values to appear. Refer to information at About Latest Weather Observations and please check the disclaimer before using these data.